createdAt,value
2018-09-06T00:02:00.092Z,99.90
2018-09-06T00:04:27.092Z,99.90
2018-09-06T00:06:54.137Z,99.90
2018-09-06T00:09:21.128Z,99.90
2018-09-06T00:11:48.116Z,99.90
2018-09-06T00:14:15.675Z,99.90
2018-09-06T00:16:42.648Z,99.90
2018-09-06T00:19:09.649Z,99.90
2018-09-06T00:21:36.700Z,99.90
2018-09-06T00:24:03.725Z,99.90
2018-09-06T00:26:30.754Z,99.90
2018-09-06T00:28:57.751Z,99.90
2018-09-06T00:31:24.824Z,99.90
2018-09-06T00:33:51.855Z,99.90
2018-09-06T00:36:18.847Z,99.90
2018-09-06T00:38:45.861Z,99.90
2018-09-06T00:41:12.847Z,99.90
2018-09-06T00:43:39.868Z,99.90
2018-09-06T00:46:06.856Z,99.90
2018-09-06T00:48:33.919Z,99.90
2018-09-06T00:51:00.924Z,99.90
2018-09-06T00:53:27.925Z,99.90
2018-09-06T00:55:54.975Z,99.90
2018-09-06T00:58:21.932Z,99.90
2018-09-06T01:00:48.931Z,99.90
2018-09-06T01:03:15.967Z,99.90
2018-09-06T01:05:42.997Z,99.90
2018-09-06T01:08:10.024Z,99.90
2018-09-06T01:10:37.027Z,99.90
2018-09-06T01:13:04.112Z,99.90
2018-09-06T01:15:31.403Z,99.90
2018-09-06T01:17:58.427Z,99.90
2018-09-06T01:20:25.432Z,99.90
2018-09-06T01:22:52.410Z,99.90
2018-09-06T01:25:19.410Z,99.90
2018-09-06T01:27:46.418Z,99.90
2018-09-06T01:30:13.407Z,99.90
2018-09-06T01:32:40.458Z,99.90
2018-09-06T01:35:07.549Z,99.90
2018-09-06T01:37:34.535Z,99.90
2018-09-06T01:40:01.517Z,99.90
2018-09-06T01:42:28.546Z,99.90
2018-09-06T01:44:55.564Z,99.90
2018-09-06T01:47:22.573Z,99.90
2018-09-06T01:49:49.589Z,99.90
2018-09-06T01:52:16.569Z,99.90
2018-09-06T01:54:43.579Z,99.90
2018-09-06T01:57:10.566Z,99.90
2018-09-06T01:59:39.245Z,99.90
2018-09-06T02:02:06.220Z,99.90
2018-09-06T02:04:33.241Z,99.90
2018-09-06T02:07:00.234Z,99.90
2018-09-06T02:09:27.278Z,99.90
2018-09-06T02:11:54.298Z,99.90
2018-09-06T02:14:21.296Z,99.90
2018-09-06T02:16:48.730Z,99.90
2018-09-06T02:19:15.735Z,99.90
2018-09-06T02:21:42.744Z,99.90
2018-09-06T02:24:09.761Z,99.90
2018-09-06T02:26:36.768Z,99.90
2018-09-06T02:29:03.843Z,99.90
2018-09-06T02:31:30.885Z,99.90
2018-09-06T02:33:57.915Z,99.90
2018-09-06T02:36:24.901Z,99.90
2018-09-06T02:38:51.918Z,99.90
2018-09-06T02:41:18.905Z,99.90
2018-09-06T02:43:45.887Z,99.90
2018-09-06T02:46:12.868Z,99.90
2018-09-06T02:48:41.090Z,99.90
2018-09-06T02:51:18.357Z,99.90
2018-09-06T02:53:45.341Z,99.90
2018-09-06T02:56:12.927Z,99.90
2018-09-06T02:58:39.946Z,99.90
2018-09-06T03:01:07.071Z,99.90
2018-09-06T03:03:34.134Z,99.90
2018-09-06T03:06:01.156Z,99.90
2018-09-06T03:08:28.160Z,99.90
2018-09-06T03:10:58.252Z,99.90
2018-09-06T03:13:25.236Z,99.90
2018-09-06T03:15:52.263Z,99.90
2018-09-06T03:18:19.699Z,99.90
2018-09-06T03:20:46.666Z,99.90
2018-09-06T03:23:13.658Z,99.90
2018-09-06T03:25:40.683Z,99.90
2018-09-06T03:28:07.698Z,99.90
2018-09-06T03:30:34.692Z,99.90
2018-09-06T03:33:01.789Z,99.90
2018-09-06T03:35:28.808Z,99.90
2018-09-06T03:37:55.785Z,99.90
2018-09-06T03:40:22.866Z,99.90
2018-09-06T03:42:49.863Z,99.90
2018-09-06T03:45:16.905Z,99.90
2018-09-06T03:47:43.890Z,99.90
2018-09-06T03:50:10.915Z,99.90
2018-09-06T03:52:37.887Z,99.90
2018-09-06T03:55:04.850Z,99.90
2018-09-06T03:57:31.835Z,99.90
2018-09-06T03:59:58.862Z,99.90
2018-09-06T04:02:25.849Z,99.90
2018-09-06T04:04:52.852Z,99.90
2018-09-06T04:07:19.865Z,99.90
2018-09-06T04:09:46.871Z,99.90
2018-09-06T04:12:13.868Z,99.90
2018-09-06T04:14:40.884Z,99.90
2018-09-06T04:17:07.885Z,99.90
2018-09-06T04:19:35.181Z,99.90
2018-09-06T04:22:02.181Z,99.90
2018-09-06T04:24:29.169Z,99.90
2018-09-06T04:26:56.131Z,99.90
2018-09-06T04:29:23.130Z,99.90
2018-09-06T04:31:50.112Z,99.90
2018-09-06T04:34:18.053Z,99.90
2018-09-06T04:36:45.051Z,99.90
2018-09-06T04:39:12.136Z,99.90
2018-09-06T04:41:39.103Z,99.90
2018-09-06T04:44:06.138Z,99.90
2018-09-06T04:46:33.295Z,99.90
2018-09-06T04:49:00.378Z,99.90
2018-09-06T04:51:27.389Z,99.90
2018-09-06T04:53:54.347Z,99.90
2018-09-06T04:56:21.349Z,99.90
2018-09-06T04:58:48.365Z,99.90
2018-09-06T05:01:15.352Z,99.90
2018-09-06T05:03:42.331Z,99.90
2018-09-06T05:06:09.351Z,99.90
2018-09-06T05:08:36.340Z,99.90
2018-09-06T05:11:03.319Z,99.90
2018-09-06T05:13:30.326Z,99.90
2018-09-06T05:15:57.303Z,99.90
2018-09-06T05:18:24.342Z,99.90
2018-09-06T05:20:51.824Z,99.90
2018-09-06T05:23:18.822Z,99.90
2018-09-06T05:25:45.787Z,99.90
2018-09-06T05:28:12.810Z,99.90
2018-09-06T05:30:39.853Z,99.90
2018-09-06T05:33:06.769Z,99.90
2018-09-06T05:35:33.896Z,99.90
2018-09-06T05:38:00.876Z,99.90
2018-09-06T05:40:27.835Z,99.90
2018-09-06T05:42:54.835Z,99.90
2018-09-06T05:45:21.808Z,99.90
2018-09-06T05:47:54.496Z,99.90
2018-09-06T05:50:21.531Z,99.90
2018-09-06T05:52:48.507Z,99.90
2018-09-06T05:55:15.487Z,99.90
2018-09-06T05:57:42.484Z,99.90
2018-09-06T06:00:15.260Z,99.90
2018-09-06T06:02:42.239Z,99.90
2018-09-06T06:05:09.251Z,99.90
2018-09-06T06:07:47.810Z,99.90
2018-09-06T06:10:14.820Z,99.90
2018-09-06T06:12:41.802Z,99.90
2018-09-06T06:15:08.762Z,99.90
2018-09-06T06:17:35.810Z,99.90
2018-09-06T06:20:02.904Z,99.90
2018-09-06T06:22:30.228Z,99.90
2018-09-06T06:24:57.233Z,99.90
2018-09-06T06:27:24.199Z,99.90
2018-09-06T06:29:51.203Z,99.90
2018-09-06T06:32:18.242Z,99.90
2018-09-06T06:34:45.194Z,99.90
2018-09-06T06:37:12.166Z,99.90
2018-09-06T06:39:39.164Z,99.90
2018-09-06T06:42:06.123Z,99.90
2018-09-06T06:44:33.089Z,99.90
2018-09-06T06:47:00.091Z,99.90
2018-09-06T06:49:27.126Z,99.90
2018-09-06T06:51:54.122Z,99.90
2018-09-06T06:54:21.111Z,99.90
2018-09-06T06:56:48.088Z,99.90
2018-09-06T06:59:15.068Z,99.90
2018-09-06T07:01:42.064Z,99.90
2018-09-06T07:04:09.083Z,99.90
2018-09-06T07:06:36.026Z,99.90
2018-09-06T07:09:04.713Z,99.90
2018-09-06T07:11:31.688Z,99.90
2018-09-06T07:13:58.666Z,99.90
2018-09-06T07:16:25.657Z,99.90
2018-09-06T07:18:52.630Z,99.90
2018-09-06T07:21:20.125Z,99.90
2018-09-06T07:23:47.060Z,99.90
2018-09-06T07:26:14.026Z,99.90
2018-09-06T07:28:41.034Z,99.90
2018-09-06T07:31:08.054Z,99.90
2018-09-06T07:33:35.031Z,99.90
2018-09-06T07:36:01.999Z,99.90
2018-09-06T07:38:29.002Z,99.90
2018-09-06T07:40:56.002Z,99.90
2018-09-06T07:43:22.972Z,99.90
2018-09-06T07:45:49.961Z,99.90
2018-09-06T07:48:16.960Z,99.90
2018-09-06T07:50:43.943Z,99.90
2018-09-06T07:53:10.982Z,99.90
2018-09-06T07:55:37.965Z,99.90
2018-09-06T07:58:04.930Z,99.90
2018-09-06T08:00:31.939Z,99.90
2018-09-06T08:02:58.919Z,99.90
2018-09-06T08:05:25.892Z,99.90
2018-09-06T08:07:52.869Z,99.90
2018-09-06T08:10:19.835Z,99.90
2018-09-06T08:12:46.839Z,99.90
2018-09-06T08:15:13.834Z,99.90
2018-09-06T08:17:40.826Z,99.90
2018-09-06T08:20:07.819Z,99.90
2018-09-06T08:22:34.810Z,99.90
2018-09-06T08:25:02.172Z,99.90
2018-09-06T08:27:29.184Z,99.90
2018-09-06T08:29:56.170Z,99.90
2018-09-06T08:32:23.154Z,99.90
2018-09-06T08:34:51.271Z,99.90
2018-09-06T08:37:18.718Z,99.90
2018-09-06T08:39:45.656Z,99.90
2018-09-06T08:42:13.031Z,99.90
2018-09-06T08:44:40.052Z,99.90
2018-09-06T08:47:07.086Z,99.90
2018-09-06T08:49:34.044Z,99.90
2018-09-06T08:52:01.064Z,99.90
2018-09-06T08:54:28.087Z,99.90
2018-09-06T08:56:55.066Z,99.90
2018-09-06T08:59:22.114Z,99.90
2018-09-06T09:01:49.098Z,99.90
2018-09-06T09:04:16.076Z,99.90
2018-09-06T09:06:43.166Z,99.90
2018-09-06T09:09:15.207Z,99.90
2018-09-06T09:11:42.183Z,99.90
2018-09-06T09:14:09.456Z,99.90
2018-09-06T09:16:36.544Z,99.90
2018-09-06T09:19:07.416Z,99.90
2018-09-06T09:21:34.447Z,99.90
2018-09-06T09:24:02.033Z,99.90
2018-09-06T09:26:29.374Z,99.90
2018-09-06T09:28:56.363Z,99.90
2018-09-06T09:31:24.151Z,99.90
2018-09-06T09:33:51.015Z,99.90
2018-09-06T09:36:18.008Z,99.90
2018-09-06T09:38:44.981Z,99.90
2018-09-06T09:41:11.958Z,99.90
2018-09-06T09:43:38.941Z,99.90
2018-09-06T09:48:35.020Z,99.90
2018-09-06T09:51:01.663Z,99.90
2018-09-06T09:53:29.563Z,99.90
2018-09-06T09:55:56.546Z,99.50
2018-09-06T09:58:23.558Z,97.00
2018-09-06T10:00:50.592Z,96.60
2018-09-06T10:03:24.652Z,96.80
2018-09-06T10:06:14.268Z,97.10
2018-09-06T10:08:47.051Z,95.60
2018-09-06T10:11:14.044Z,95.10
2018-09-06T10:13:41.007Z,94.10
2018-09-06T10:16:08.119Z,94.20
2018-09-06T10:18:35.099Z,93.10
2018-09-06T10:21:02.073Z,93.00
2018-09-06T10:23:29.039Z,94.00
2018-09-06T10:25:56.511Z,93.40
2018-09-06T10:28:23.747Z,92.20
2018-09-06T10:30:50.739Z,92.10
2018-09-06T10:33:17.696Z,91.80
2018-09-06T10:35:44.700Z,89.50
2018-09-06T10:38:11.699Z,88.20
2018-09-06T10:40:38.723Z,89.70
2018-09-06T10:43:05.744Z,84.90
2018-09-06T10:45:32.685Z,85.80
2018-09-06T10:48:00.778Z,82.40
2018-09-06T10:50:27.708Z,85.20
2018-09-06T10:52:54.673Z,85.40
2018-09-06T10:55:21.650Z,85.80
2018-09-06T10:57:48.618Z,85.70
2018-09-06T11:00:16.169Z,85.90
2018-09-06T11:02:43.138Z,82.90
2018-09-06T11:05:10.124Z,80.10
2018-09-06T11:07:37.123Z,78.00
2018-09-06T11:10:04.170Z,76.20
2018-09-06T11:12:31.802Z,76.20
2018-09-06T11:14:58.872Z,76.50
2018-09-06T11:17:25.807Z,73.30
2018-09-06T11:19:52.977Z,73.90
2018-09-06T11:22:20.452Z,77.10
2018-09-06T11:24:47.319Z,77.30
2018-09-06T11:27:14.743Z,80.00
2018-09-06T11:29:42.425Z,81.40
2018-09-06T11:32:09.780Z,82.80
2018-09-06T11:34:36.756Z,84.50
2018-09-06T11:37:03.750Z,88.20
2018-09-06T11:39:30.714Z,90.30
2018-09-06T11:41:58.902Z,94.30
2018-09-06T11:44:25.880Z,96.70
2018-09-06T11:46:52.962Z,99.50
2018-09-06T11:49:19.971Z,99.90
2018-09-06T11:51:46.956Z,99.90
2018-09-06T11:54:13.966Z,99.90
2018-09-06T11:56:40.950Z,99.90
2018-09-06T11:59:07.999Z,99.90
2018-09-06T12:01:35.170Z,99.90
2018-09-06T12:04:02.167Z,99.90
2018-09-06T12:06:29.166Z,99.90
2018-09-06T12:08:56.200Z,99.90
2018-09-06T12:11:23.174Z,99.90
2018-09-06T12:13:51.325Z,99.90
2018-09-06T12:16:18.195Z,99.90
2018-09-06T12:18:45.155Z,99.90
2018-09-06T12:21:12.142Z,99.90
2018-09-06T12:23:39.122Z,99.90
2018-09-06T12:26:06.095Z,99.90
2018-09-06T12:28:33.095Z,99.90
2018-09-06T12:31:00.572Z,99.90
2018-09-06T12:33:27.570Z,99.90
2018-09-06T12:35:54.553Z,99.90
2018-09-06T12:38:21.510Z,99.90
2018-09-06T12:40:48.467Z,99.90
2018-09-06T12:43:15.452Z,99.90
2018-09-06T12:45:42.416Z,99.90
2018-09-06T12:48:09.378Z,99.90
2018-09-06T12:50:36.367Z,99.90
2018-09-06T12:53:03.349Z,99.90
2018-09-06T12:55:30.326Z,99.90
2018-09-06T12:57:57.295Z,99.90
2018-09-06T13:00:24.327Z,99.90
2018-09-06T13:02:51.302Z,99.90
2018-09-06T13:05:18.307Z,99.90
2018-09-06T13:07:45.314Z,99.90
2018-09-06T13:10:12.265Z,99.90
2018-09-06T13:12:39.257Z,99.90
2018-09-06T13:15:06.244Z,99.90
2018-09-06T13:17:33.205Z,99.90
2018-09-06T13:20:00.206Z,99.90
2018-09-06T13:22:27.162Z,99.90
2018-09-06T13:24:54.154Z,99.90
2018-09-06T13:27:21.193Z,98.80
2018-09-06T13:29:48.108Z,99.90
2018-09-06T13:32:15.330Z,97.10
2018-09-06T13:34:42.325Z,97.70
2018-09-06T13:37:12.015Z,96.00
2018-09-06T13:39:39.021Z,93.80
2018-09-06T13:42:06.145Z,95.20
2018-09-06T13:44:33.120Z,95.60
2018-09-06T13:47:00.098Z,95.00
2018-09-06T13:49:27.093Z,94.70
2018-09-06T13:51:54.051Z,96.20
2018-09-06T13:54:21.028Z,93.90
2018-09-06T13:56:48.031Z,92.60
2018-09-06T13:59:14.995Z,91.40
2018-09-06T14:01:41.962Z,92.00
2018-09-06T14:04:08.972Z,93.10
2018-09-06T14:06:36.012Z,94.40
2018-09-06T14:09:04.141Z,92.70
2018-09-06T14:11:31.134Z,93.40
2018-09-06T14:13:58.164Z,94.10
2018-09-06T14:16:25.150Z,94.30
2018-09-06T14:18:52.122Z,94.50
2018-09-06T14:21:19.102Z,95.00
2018-09-06T14:23:46.078Z,94.10
2018-09-06T14:26:13.064Z,93.50
2018-09-06T14:28:40.030Z,94.30
2018-09-06T14:31:06.986Z,94.40
2018-09-06T14:33:34.321Z,93.90
2018-09-06T14:36:01.383Z,94.60
2018-09-06T14:38:28.412Z,95.00
2018-09-06T14:40:55.341Z,95.70
2018-09-06T14:43:22.299Z,94.90
2018-09-06T14:45:49.287Z,94.90
2018-09-06T14:48:16.277Z,94.50
2018-09-06T14:50:43.281Z,95.60
2018-09-06T14:53:10.214Z,97.20
2018-09-06T14:55:37.206Z,97.60
2018-09-06T14:58:04.336Z,96.40
2018-09-06T15:00:31.299Z,96.90
2018-09-06T15:02:58.343Z,97.90
2018-09-06T15:05:25.365Z,97.90
2018-09-06T15:07:52.353Z,98.90
2018-09-06T15:10:19.364Z,99.40
2018-09-06T15:12:46.297Z,99.70
2018-09-06T15:15:13.291Z,99.90
2018-09-06T15:17:40.270Z,99.90
2018-09-06T15:20:07.294Z,99.90
2018-09-06T15:22:34.174Z,99.90
2018-09-06T15:25:01.178Z,99.90
2018-09-06T15:27:28.173Z,99.90
2018-09-06T15:29:55.179Z,99.90
2018-09-06T15:32:22.190Z,99.90
2018-09-06T15:34:49.446Z,99.90
2018-09-06T15:37:16.462Z,99.90
2018-09-06T15:39:43.469Z,99.90
2018-09-06T15:42:10.458Z,99.90
2018-09-06T15:44:37.449Z,99.90
2018-09-06T15:47:04.454Z,99.90
2018-09-06T15:49:31.486Z,99.90
2018-09-06T15:51:58.411Z,99.90
2018-09-06T15:54:25.422Z,99.90
2018-09-06T15:56:52.450Z,99.90
2018-09-06T15:59:19.422Z,99.90
2018-09-06T16:01:46.408Z,99.90
2018-09-06T16:04:13.348Z,99.90
2018-09-06T16:06:40.348Z,99.90
2018-09-06T16:09:07.473Z,99.90
2018-09-06T16:11:34.459Z,99.90
2018-09-06T16:14:01.607Z,99.90
2018-09-06T16:16:28.863Z,99.90
2018-09-06T16:18:55.836Z,99.90
2018-09-06T16:21:22.826Z,99.90
2018-09-06T16:23:49.817Z,99.90
2018-09-06T16:26:16.782Z,99.90
2018-09-06T16:28:43.823Z,99.90
2018-09-06T16:31:10.820Z,99.90
2018-09-06T16:33:37.804Z,99.90
2018-09-06T16:36:05.496Z,99.90
2018-09-06T16:38:32.518Z,99.90
2018-09-06T16:40:59.539Z,99.90
2018-09-06T16:43:26.506Z,99.90
2018-09-06T16:45:53.507Z,99.90
2018-09-06T16:48:20.494Z,99.90
2018-09-06T16:50:47.458Z,99.90
2018-09-06T16:53:14.463Z,99.90
2018-09-06T16:55:41.481Z,99.90
2018-09-06T16:58:08.470Z,99.90
2018-09-06T17:00:35.454Z,99.90
2018-09-06T17:03:02.401Z,99.90
2018-09-06T17:05:29.499Z,99.90
2018-09-06T17:07:56.471Z,99.90
2018-09-06T17:10:23.559Z,99.90
2018-09-06T17:12:50.519Z,99.90
2018-09-06T17:15:17.547Z,99.90
2018-09-06T17:17:44.522Z,99.90
2018-09-06T17:20:11.562Z,99.90
2018-09-06T17:22:38.590Z,99.90
2018-09-06T17:25:05.593Z,99.90
2018-09-06T17:27:32.578Z,99.90
2018-09-06T17:29:59.553Z,99.90
2018-09-06T17:32:26.643Z,99.90
2018-09-06T17:34:53.538Z,99.90
2018-09-06T17:37:20.978Z,99.90
2018-09-06T17:39:47.949Z,99.90
2018-09-06T17:42:14.931Z,99.90
2018-09-06T17:44:41.898Z,99.90
2018-09-06T17:47:08.897Z,99.90
2018-09-06T17:49:35.916Z,99.90
2018-09-06T17:52:02.915Z,99.90
2018-09-06T17:54:29.973Z,99.90
2018-09-06T17:56:56.943Z,99.90
2018-09-06T17:59:23.993Z,99.90
2018-09-06T18:01:50.910Z,99.90
2018-09-06T18:04:17.870Z,99.90
2018-09-06T18:06:44.862Z,99.90
2018-09-06T18:09:12.830Z,99.90
2018-09-06T18:11:40.296Z,99.90
2018-09-06T18:14:07.402Z,99.90
2018-09-06T18:16:34.346Z,99.90
2018-09-06T18:19:01.297Z,99.90
2018-09-06T18:21:28.255Z,99.90
2018-09-06T18:23:55.846Z,99.90
2018-09-06T18:26:22.793Z,99.90
2018-09-06T18:28:49.913Z,99.90
2018-09-06T18:31:16.914Z,99.90
2018-09-06T18:33:43.873Z,99.90
2018-09-06T18:36:10.854Z,99.90
2018-09-06T18:38:38.306Z,99.90
2018-09-06T18:41:05.325Z,99.90
2018-09-06T18:43:32.315Z,99.90
2018-09-06T18:45:59.268Z,99.90
2018-09-06T18:48:26.244Z,99.90
2018-09-06T18:50:53.241Z,99.90
2018-09-06T18:53:20.207Z,99.90
2018-09-06T18:55:47.167Z,99.90
2018-09-06T18:58:14.165Z,99.90
2018-09-06T19:00:41.377Z,99.90
2018-09-06T19:03:08.435Z,99.90
2018-09-06T19:05:35.543Z,99.90
2018-09-06T19:08:02.586Z,99.90
2018-09-06T19:10:29.602Z,99.90
2018-09-06T19:12:56.689Z,99.90
2018-09-06T19:15:23.796Z,99.90
2018-09-06T19:17:51.518Z,99.90
2018-09-06T19:20:18.568Z,99.90
2018-09-06T19:22:45.726Z,99.90
2018-09-06T19:25:12.729Z,99.90
2018-09-06T19:27:39.817Z,99.90
2018-09-06T19:30:06.824Z,99.90
2018-09-06T19:32:34.029Z,99.90
2018-09-06T19:35:01.582Z,99.90
2018-09-06T19:37:28.551Z,99.90
2018-09-06T19:39:56.386Z,99.90
2018-09-06T19:42:23.054Z,99.90
2018-09-06T19:44:50.060Z,99.90
2018-09-06T19:47:17.031Z,99.90
2018-09-06T19:49:44.155Z,99.90
2018-09-06T19:52:11.134Z,99.90
2018-09-06T19:54:38.160Z,99.90
2018-09-06T19:57:05.226Z,99.90
2018-09-06T19:59:32.194Z,99.90
2018-09-06T20:01:59.307Z,99.90
2018-09-06T20:04:26.267Z,99.90
2018-09-06T20:06:53.258Z,99.90
2018-09-06T20:09:20.470Z,99.90
2018-09-06T20:11:47.693Z,99.90
2018-09-06T20:14:14.698Z,99.90
2018-09-06T20:16:41.701Z,99.90
2018-09-06T20:19:08.623Z,99.90
2018-09-06T20:21:35.634Z,99.90
2018-09-06T20:24:02.622Z,99.90
2018-09-06T20:26:29.674Z,99.90
2018-09-06T20:28:56.799Z,99.90
2018-09-06T20:31:23.792Z,99.90
2018-09-06T20:33:50.848Z,99.90
2018-09-06T20:36:17.814Z,99.90
2018-09-06T20:38:44.803Z,99.90
2018-09-06T20:41:12.354Z,99.90
2018-09-06T20:43:39.377Z,99.90
2018-09-06T20:46:06.351Z,99.90
2018-09-06T20:48:33.635Z,99.90
2018-09-06T20:51:00.626Z,99.90
2018-09-06T20:53:27.574Z,99.90
2018-09-06T20:55:54.606Z,99.90
2018-09-06T20:58:21.502Z,99.90
2018-09-06T21:00:48.502Z,99.90
2018-09-06T21:03:15.540Z,99.90
2018-09-06T21:05:42.490Z,99.90
2018-09-06T21:08:09.484Z,99.90
2018-09-06T21:10:36.484Z,99.90
2018-09-06T21:13:03.441Z,99.90
2018-09-06T21:15:30.402Z,99.90
2018-09-06T21:17:57.492Z,99.90
2018-09-06T21:20:24.487Z,99.90
2018-09-06T21:22:51.454Z,99.90
2018-09-06T21:25:18.476Z,99.90
2018-09-06T21:27:45.429Z,99.90
2018-09-06T21:30:12.383Z,99.90
2018-09-06T21:32:39.862Z,99.90
2018-09-06T21:35:06.362Z,99.90
2018-09-06T21:37:34.115Z,99.90
2018-09-06T21:40:01.125Z,99.90
2018-09-06T21:42:28.405Z,99.90
2018-09-06T21:44:55.375Z,99.90
2018-09-06T21:47:22.394Z,99.90
2018-09-06T21:49:49.365Z,99.90
2018-09-06T21:52:16.567Z,99.90
2018-09-06T21:54:43.722Z,99.90
2018-09-06T21:57:10.634Z,99.90
2018-09-06T21:59:37.630Z,99.90
2018-09-06T22:02:04.671Z,99.90
2018-09-06T22:04:32.896Z,99.90
2018-09-06T22:06:59.870Z,99.90
2018-09-06T22:09:27.607Z,99.90
2018-09-06T22:11:54.553Z,99.90
2018-09-06T22:14:22.367Z,99.90
2018-09-06T22:16:49.372Z,99.90
2018-09-06T22:19:16.345Z,99.90
2018-09-06T22:21:43.305Z,99.90
2018-09-06T22:24:10.308Z,99.90
2018-09-06T22:26:37.283Z,99.90
2018-09-06T22:29:04.290Z,99.90
2018-09-06T22:31:31.237Z,99.90
2018-09-06T22:33:58.229Z,99.90
2018-09-06T22:36:25.202Z,99.90
2018-09-06T22:38:52.207Z,99.90
2018-09-06T22:41:19.166Z,99.90
2018-09-06T22:43:46.526Z,99.90
2018-09-06T22:46:13.519Z,99.90
2018-09-06T22:48:40.498Z,99.90
2018-09-06T22:51:07.471Z,99.90
2018-09-06T22:53:34.450Z,99.90
2018-09-06T22:56:01.892Z,99.90
2018-09-06T22:58:28.934Z,99.90
2018-09-06T23:00:56.153Z,99.90
2018-09-06T23:03:28.740Z,99.90
2018-09-06T23:05:55.693Z,99.90
2018-09-06T23:08:22.670Z,99.90
2018-09-06T23:10:49.678Z,99.90
2018-09-06T23:13:16.639Z,99.90
2018-09-06T23:15:43.606Z,99.90
2018-09-06T23:18:10.564Z,99.90
2018-09-06T23:20:37.518Z,99.90
2018-09-06T23:23:04.496Z,99.90
2018-09-06T23:25:31.521Z,99.90
2018-09-06T23:27:58.471Z,99.90
2018-09-06T23:30:25.506Z,99.90
2018-09-06T23:32:52.406Z,99.90
2018-09-06T23:35:19.374Z,99.90
2018-09-06T23:37:46.341Z,99.90
2018-09-06T23:40:13.314Z,99.90
2018-09-06T23:42:40.264Z,99.90
2018-09-06T23:45:07.718Z,99.90
2018-09-06T23:47:34.679Z,99.90
2018-09-06T23:50:01.618Z,99.90
2018-09-06T23:52:28.591Z,99.90
2018-09-06T23:54:55.551Z,99.90
2018-09-06T23:57:22.516Z,99.90
2018-09-06T23:59:49.491Z,99.90
